sensor_id;sensor_type;location;lat;lon;timestamp;pressure;altitude;pressure_sealevel;temperature;humidity
10071;BME280;5074;53.720;10.014;2023-05-14T00:01:43;101670.66;;;11.78;100.00
10071;BME280;5074;53.720;10.014;2023-05-14T00:04:12;101664.28;;;11.84;100.00
10071;BME280;5074;53.720;10.014;2023-05-14T00:06:40;101660.84;;;11.79;100.00
10071;BME280;5074;53.720;10.014;2023-05-14T00:09:08;101661.88;;;11.73;100.00
10071;BME280;5074;53.720;10.014;2023-05-14T00:11:37;101664.53;;;11.75;100.00
10071;BME280;5074;53.720;10.014;2023-05-14T00:14:05;101664.50;;;11.76;100.00
10071;BME280;5074;53.720;10.014;2023-05-14T00:16:33;101664.56;;;11.73;100.00
10071;BME280;5074;53.720;10.014;2023-05-14T00:19:01;101658.56;;;11.63;100.00
10071;BME280;5074;53.720;10.014;2023-05-14T00:21:29;101660.34;;;11.64;100.00
10071;BME280;5074;53.720;10.014;2023-05-14T00:23:58;101656.72;;;11.65;100.00
10071;BME280;5074;53.720;10.014;2023-05-14T00:26:26;101656.75;;;11.64;100.00
10071;BME280;5074;53.720;10.014;2023-05-14T00:28:55;101648.06;;;11.56;100.00
10071;BME280;5074;53.720;10.014;2023-05-14T00:31:23;101646.44;;;11.49;100.00
10071;BME280;5074;53.720;10.014;2023-05-14T00:33:51;101647.50;;;11.43;100.00
10071;BME280;5074;53.720;10.014;2023-05-14T00:36:19;101656.44;;;11.42;100.00
10071;BME280;5074;53.720;10.014;2023-05-14T00:38:48;101643.38;;;11.28;100.00
10071;BME280;5074;53.720;10.014;2023-05-14T00:41:16;101644.44;;;11.21;100.00
10071;BME280;5074;53.720;10.014;2023-05-14T00:43:44;101640.34;;;11.06;100.00
10071;BME280;5074;53.720;10.014;2023-05-14T00:46:13;101635.19;;;10.98;100.00
10071;BME280;5074;53.720;10.014;2023-05-14T00:48:43;101639.63;;;10.98;100.00
10071;BME280;5074;53.720;10.014;2023-05-14T00:51:11;101646.78;;;10.97;100.00
10071;BME280;5074;53.720;10.014;2023-05-14T00:53:40;101634.56;;;10.85;100.00
10071;BME280;5074;53.720;10.014;2023-05-14T00:56:08;101627.63;;;10.76;100.00
10071;BME280;5074;53.720;10.014;2023-05-14T00:58:36;101645.59;;;10.70;100.00
10071;BME280;5074;53.720;10.014;2023-05-14T01:01:04;101635.25;;;10.54;100.00
10071;BME280;5074;53.720;10.014;2023-05-14T01:03:34;101630.94;;;10.47;100.00
10071;BME280;5074;53.720;10.014;2023-05-14T01:06:08;101635.66;;;10.33;100.00
10071;BME280;5074;53.720;10.014;2023-05-14T01:08:45;101640.31;;;10.23;100.00
10071;BME280;5074;53.720;10.014;2023-05-14T01:11:19;101641.19;;;10.23;100.00
10071;BME280;5074;53.720;10.014;2023-05-14T01:13:55;101649.19;;;10.23;100.00
10071;BME280;5074;53.720;10.014;2023-05-14T01:16:26;101647.50;;;10.19;100.00
10071;BME280;5074;53.720;10.014;2023-05-14T01:18:57;101642.94;;;10.24;100.00
10071;BME280;5074;53.720;10.014;2023-05-14T01:21:35;101651.88;;;10.23;100.00
10071;BME280;5074;53.720;10.014;2023-05-14T01:24:04;101647.22;;;10.33;100.00
10071;BME280;5074;53.720;10.014;2023-05-14T01:26:33;101641.91;;;10.32;100.00
10071;BME280;5074;53.720;10.014;2023-05-14T01:29:07;101642.88;;;10.28;100.00
10071;BME280;5074;53.720;10.014;2023-05-14T01:31:38;101636.53;;;10.33;100.00
10071;BME280;5074;53.720;10.014;2023-05-14T01:34:10;101647.22;;;10.35;100.00
10071;BME280;5074;53.720;10.014;2023-05-14T01:36:41;101641.03;;;10.30;100.00
10071;BME280;5074;53.720;10.014;2023-05-14T01:39:10;101642.78;;;10.34;100.00
10071;BME280;5074;53.720;10.014;2023-05-14T01:41:39;101639.31;;;10.29;100.00
10071;BME280;5074;53.720;10.014;2023-05-14T01:44:08;101638.56;;;10.20;100.00
10071;BME280;5074;53.720;10.014;2023-05-14T01:46:37;101634.91;;;10.26;100.00
10071;BME280;5074;53.720;10.014;2023-05-14T01:49:05;101642.00;;;10.27;100.00
10071;BME280;5074;53.720;10.014;2023-05-14T01:51:33;101638.34;;;10.31;100.00
10071;BME280;5074;53.720;10.014;2023-05-14T01:54:03;101636.56;;;10.32;100.00
10071;BME280;5074;53.720;10.014;2023-05-14T01:56:31;101636.72;;;10.25;100.00
10071;BME280;5074;53.720;10.014;2023-05-14T01:58:59;101638.50;;;10.23;100.00
10071;BME280;5074;53.720;10.014;2023-05-14T02:01:27;101635.91;;;10.20;100.00
10071;BME280;5074;53.720;10.014;2023-05-14T02:03:55;101633.28;;;10.17;100.00
10071;BME280;5074;53.720;10.014;2023-05-14T02:06:23;101634.22;;;10.15;100.00
10071;BME280;5074;53.720;10.014;2023-05-14T02:08:51;101627.94;;;10.17;100.00
10071;BME280;5074;53.720;10.014;2023-05-14T02:11:21;101633.31;;;10.16;100.00
10071;BME280;5074;53.720;10.014;2023-05-14T02:13:49;101625.22;;;10.20;100.00
10071;BME280;5074;53.720;10.014;2023-05-14T02:16:17;101626.88;;;10.26;100.00
10071;BME280;5074;53.720;10.014;2023-05-14T02:18:45;101623.34;;;10.24;100.00
10071;BME280;5074;53.720;10.014;2023-05-14T02:21:13;101629.59;;;10.24;100.00
10071;BME280;5074;53.720;10.014;2023-05-14T02:23:42;101617.41;;;10.09;100.00
10071;BME280;5074;53.720;10.014;2023-05-14T02:26:10;101630.09;;;9.98;100.00
10071;BME280;5074;53.720;10.014;2023-05-14T02:28:39;101633.91;;;9.85;100.00
10071;BME280;5074;53.720;10.014;2023-05-14T02:31:07;101634.06;;;9.76;100.00
10071;BME280;5074;53.720;10.014;2023-05-14T02:33:36;101637.94;;;9.59;100.00
10071;BME280;5074;53.720;10.014;2023-05-14T02:36:04;101633.44;;;9.61;100.00
10071;BME280;5074;53.720;10.014;2023-05-14T02:38:34;101631.88;;;9.49;100.00
10071;BME280;5074;53.720;10.014;2023-05-14T02:41:02;101626.47;;;9.52;100.00
10071;BME280;5074;53.720;10.014;2023-05-14T02:43:30;101627.66;;;9.34;100.00
10071;BME280;5074;53.720;10.014;2023-05-14T02:46:00;101630.41;;;9.30;100.00
10071;BME280;5074;53.720;10.014;2023-05-14T02:48:28;101625.09;;;9.28;100.00
10071;BME280;5074;53.720;10.014;2023-05-14T02:50:56;101617.06;;;9.30;100.00
10071;BME280;5074;53.720;10.014;2023-05-14T02:53:24;101611.06;;;9.15;100.00
10071;BME280;5074;53.720;10.014;2023-05-14T02:55:52;101618.91;;;9.26;100.00
10071;BME280;5074;53.720;10.014;2023-05-14T02:58:20;101615.09;;;9.41;100.00
10071;BME280;5074;53.720;10.014;2023-05-14T03:00:54;101613.16;;;9.51;100.00
10071;BME280;5074;53.720;10.014;2023-05-14T03:03:28;101619.25;;;9.59;100.00
10071;BME280;5074;53.720;10.014;2023-05-14T03:05:56;101618.03;;;9.77;100.00
10071;BME280;5074;53.720;10.014;2023-05-14T03:08:25;101616.19;;;9.79;100.00
10071;BME280;5074;53.720;10.014;2023-05-14T03:10:53;101611.97;;;9.67;100.00
10071;BME280;5074;53.720;10.014;2023-05-14T03:13:21;101615.84;;;9.49;100.00
10071;BME280;5074;53.720;10.014;2023-05-14T03:15:49;101574.56;;;9.19;100.00
10071;BME280;5074;53.720;10.014;2023-05-14T03:18:20;101612.53;;;9.35;100.00
10071;BME280;5074;53.720;10.014;2023-05-14T03:20:49;101617.78;;;9.39;100.00
10071;BME280;5074;53.720;10.014;2023-05-14T03:23:18;101609.91;;;9.33;100.00
10071;BME280;5074;53.720;10.014;2023-05-14T03:25:46;101616.41;;;9.15;100.00
10071;BME280;5074;53.720;10.014;2023-05-14T03:28:14;101610.16;;;9.18;100.00
10071;BME280;5074;53.720;10.014;2023-05-14T03:30:42;101619.66;;;9.33;100.00
10071;BME280;5074;53.720;10.014;2023-05-14T03:33:10;101616.97;;;9.36;100.00
10071;BME280;5074;53.720;10.014;2023-05-14T03:35:39;101618.72;;;9.37;100.00
10071;BME280;5074;53.720;10.014;2023-05-14T03:38:08;101614.56;;;9.20;100.00
10071;BME280;5074;53.720;10.014;2023-05-14T03:40:36;101621.78;;;9.12;100.00
10071;BME280;5074;53.720;10.014;2023-05-14T03:43:04;101621.97;;;9.01;100.00
10071;BME280;5074;53.720;10.014;2023-05-14T03:45:32;101627.50;;;8.88;100.00
10071;BME280;5074;53.720;10.014;2023-05-14T03:48:00;101623.25;;;8.74;100.00
10071;BME280;5074;53.720;10.014;2023-05-14T03:50:28;101619.75;;;8.69;100.00
10071;BME280;5074;53.720;10.014;2023-05-14T03:52:57;101623.31;;;8.69;100.00
10071;BME280;5074;53.720;10.014;2023-05-14T03:55:26;101623.28;;;8.73;100.00
10071;BME280;5074;53.720;10.014;2023-05-14T03:57:54;101619.69;;;8.74;100.00
10071;BME280;5074;53.720;10.014;2023-05-14T04:00:22;101620.53;;;8.77;100.00
10071;BME280;5074;53.720;10.014;2023-05-14T04:02:51;101622.19;;;8.86;100.00
10071;BME280;5074;53.720;10.014;2023-05-14T04:05:19;101625.72;;;8.86;100.00
10071;BME280;5074;53.720;10.014;2023-05-14T04:07:47;101614.25;;;8.81;100.00
10071;BME280;5074;53.720;10.014;2023-05-14T04:10:15;101615.03;;;8.88;100.00
10071;BME280;5074;53.720;10.014;2023-05-14T04:12:44;101606.91;;;8.97;100.00
10071;BME280;5074;53.720;10.014;2023-05-14T04:15:12;101617.53;;;9.00;100.00
10071;BME280;5074;53.720;10.014;2023-05-14T04:17:40;101615.72;;;9.01;100.00
10071;BME280;5074;53.720;10.014;2023-05-14T04:20:09;101612.16;;;9.03;100.00
10071;BME280;5074;53.720;10.014;2023-05-14T04:22:37;101613.84;;;9.09;100.00
10071;BME280;5074;53.720;10.014;2023-05-14T04:25:06;101612.84;;;9.16;100.00
10071;BME280;5074;53.720;10.014;2023-05-14T04:27:34;101611.84;;;9.24;100.00
10071;BME280;5074;53.720;10.014;2023-05-14T04:30:04;101615.31;;;9.29;100.00
10071;BME280;5074;53.720;10.014;2023-05-14T04:32:34;101611.53;;;9.42;100.00
10071;BME280;5074;53.720;10.014;2023-05-14T04:35:02;101612.25;;;9.52;100.00
10071;BME280;5074;53.720;10.014;2023-05-14T04:37:31;101607.47;;;9.71;100.00
10071;BME280;5074;53.720;10.014;2023-05-14T04:39:59;101611.84;;;9.75;100.00
10071;BME280;5074;53.720;10.014;2023-05-14T04:42:27;101610.63;;;9.91;100.00
10071;BME280;5074;53.720;10.014;2023-05-14T04:44:55;101613.03;;;10.07;100.00
10071;BME280;5074;53.720;10.014;2023-05-14T04:47:25;101615.41;;;10.21;100.00
10071;BME280;5074;53.720;10.014;2023-05-14T04:49:53;101611.69;;;10.28;100.00
10071;BME280;5074;53.720;10.014;2023-05-14T04:52:21;101609.56;;;10.46;100.00
10071;BME280;5074;53.720;10.014;2023-05-14T04:54:49;101600.59;;;10.50;100.00
10071;BME280;5074;53.720;10.014;2023-05-14T04:57:17;101610.22;;;10.57;100.00
10071;BME280;5074;53.720;10.014;2023-05-14T04:59:45;101613.72;;;10.60;100.00
10071;BME280;5074;53.720;10.014;2023-05-14T05:02:13;101608.16;;;10.70;100.00
10071;BME280;5074;53.720;10.014;2023-05-14T05:04:42;101608.88;;;10.78;100.00
10071;BME280;5074;53.720;10.014;2023-05-14T05:07:11;101608.59;;;10.90;100.00
10071;BME280;5074;53.720;10.014;2023-05-14T05:09:39;101611.06;;;11.00;100.00
10071;BME280;5074;53.720;10.014;2023-05-14T05:12:08;101610.00;;;11.07;100.00
10071;BME280;5074;53.720;10.014;2023-05-14T05:14:36;101606.22;;;11.16;100.00
10071;BME280;5074;53.720;10.014;2023-05-14T05:17:04;101607.81;;;11.23;100.00
10071;BME280;5074;53.720;10.014;2023-05-14T05:19:32;101608.50;;;11.33;100.00
10071;BME280;5074;53.720;10.014;2023-05-14T05:22:11;101608.19;;;11.43;100.00
10071;BME280;5074;53.720;10.014;2023-05-14T05:24:39;101609.81;;;11.51;100.00
10071;BME280;5074;53.720;10.014;2023-05-14T05:27:07;101613.09;;;11.62;100.00
10071;BME280;5074;53.720;10.014;2023-05-14T05:29:36;101608.50;;;11.65;100.00
10071;BME280;5074;53.720;10.014;2023-05-14T05:32:05;101610.09;;;11.73;100.00
10071;BME280;5074;53.720;10.014;2023-05-14T05:34:33;101610.84;;;11.79;100.00
10071;BME280;5074;53.720;10.014;2023-05-14T05:37:01;101605.25;;;11.89;100.00
10071;BME280;5074;53.720;10.014;2023-05-14T05:39:33;101608.59;;;11.97;100.00
10071;BME280;5074;53.720;10.014;2023-05-14T05:42:01;101611.13;;;12.03;100.00
10071;BME280;5074;53.720;10.014;2023-05-14T05:44:29;101597.75;;;12.02;100.00
10071;BME280;5074;53.720;10.014;2023-05-14T05:46:57;101613.34;;;12.19;100.00
10071;BME280;5074;53.720;10.014;2023-05-14T05:49:25;101620.25;;;12.27;100.00
10071;BME280;5074;53.720;10.014;2023-05-14T05:51:53;101622.66;;;12.38;100.00
10071;BME280;5074;53.720;10.014;2023-05-14T05:54:22;101616.13;;;12.47;100.00
10071;BME280;5074;53.720;10.014;2023-05-14T05:56:51;101619.50;;;12.54;100.00
10071;BME280;5074;53.720;10.014;2023-05-14T05:59:19;101616.44;;;12.66;100.00
10071;BME280;5074;53.720;10.014;2023-05-14T06:01:47;101617.00;;;12.77;100.00
10071;BME280;5074;53.720;10.014;2023-05-14T06:04:16;101623.03;;;12.84;100.00
10071;BME280;5074;53.720;10.014;2023-05-14T06:06:44;101620.09;;;12.93;100.00
10071;BME280;5074;53.720;10.014;2023-05-14T06:09:12;101621.44;;;13.07;100.00
10071;BME280;5074;53.720;10.014;2023-05-14T06:11:40;101623.75;;;13.19;100.00
10071;BME280;5074;53.720;10.014;2023-05-14T06:14:09;101621.00;;;13.20;100.00
10071;BME280;5074;53.720;10.014;2023-05-14T06:16:37;101615.47;;;13.25;100.00
10071;BME280;5074;53.720;10.014;2023-05-14T06:19:05;101620.63;;;13.31;100.00
10071;BME280;5074;53.720;10.014;2023-05-14T06:21:34;101617.75;;;13.39;100.00
10071;BME280;5074;53.720;10.014;2023-05-14T06:24:02;101613.97;;;13.45;100.00
10071;BME280;5074;53.720;10.014;2023-05-14T06:26:30;101614.56;;;13.53;100.00
10071;BME280;5074;53.720;10.014;2023-05-14T06:28:58;101612.50;;;13.61;100.00
10071;BME280;5074;53.720;10.014;2023-05-14T06:31:28;101611.25;;;13.71;100.00
10071;BME280;5074;53.720;10.014;2023-05-14T06:33:56;101610.13;;;13.79;100.00
10071;BME280;5074;53.720;10.014;2023-05-14T06:36:24;101604.41;;;13.88;100.00
10071;BME280;5074;53.720;10.014;2023-05-14T06:38:52;101599.81;;;13.92;100.00
10071;BME280;5074;53.720;10.014;2023-05-14T06:41:22;101609.34;;;14.00;100.00
10071;BME280;5074;53.720;10.014;2023-05-14T06:43:50;101609.84;;;14.12;100.00
10071;BME280;5074;53.720;10.014;2023-05-14T06:46:18;101602.44;;;14.18;100.00
10071;BME280;5074;53.720;10.014;2023-05-14T06:48:48;101604.00;;;14.24;100.00
10071;BME280;5074;53.720;10.014;2023-05-14T06:51:16;101609.97;;;14.32;100.00
10071;BME280;5074;53.720;10.014;2023-05-14T06:53:44;101601.66;;;14.38;100.00
10071;BME280;5074;53.720;10.014;2023-05-14T06:56:12;101605.88;;;14.46;100.00
10071;BME280;5074;53.720;10.014;2023-05-14T06:58:40;101607.28;;;14.56;100.00
10071;BME280;5074;53.720;10.014;2023-05-14T07:01:08;101607.88;;;14.64;100.00
10071;BME280;5074;53.720;10.014;2023-05-14T07:03:36;101607.41;;;14.76;100.00
10071;BME280;5074;53.720;10.014;2023-05-14T07:06:06;101603.53;;;14.84;100.00
10071;BME280;5074;53.720;10.014;2023-05-14T07:08:34;101596.97;;;14.91;100.00
10071;BME280;5074;53.720;10.014;2023-05-14T07:11:02;101593.22;;;14.95;100.00
10071;BME280;5074;53.720;10.014;2023-05-14T07:13:30;101592.13;;;14.99;100.00
10071;BME280;5074;53.720;10.014;2023-05-14T07:15:59;101587.19;;;15.10;100.00
10071;BME280;5074;53.720;10.014;2023-05-14T07:18:27;101593.09;;;15.20;100.00
10071;BME280;5074;53.720;10.014;2023-05-14T07:20:55;101588.25;;;15.28;100.00
10071;BME280;5074;53.720;10.014;2023-05-14T07:23:24;101584.31;;;15.37;100.00
10071;BME280;5074;53.720;10.014;2023-05-14T07:25:52;101584.91;;;15.44;100.00
10071;BME280;5074;53.720;10.014;2023-05-14T07:28:20;101582.56;;;15.57;100.00
10071;BME280;5074;53.720;10.014;2023-05-14T07:30:48;101573.09;;;15.69;100.00
10071;BME280;5074;53.720;10.014;2023-05-14T07:33:16;101577.16;;;15.79;100.00
10071;BME280;5074;53.720;10.014;2023-05-14T07:35:44;101570.19;;;15.94;100.00
10071;BME280;5074;53.720;10.014;2023-05-14T07:38:12;101571.44;;;16.06;100.00
10071;BME280;5074;53.720;10.014;2023-05-14T07:40:42;101568.28;;;16.17;100.00
10071;BME280;5074;53.720;10.014;2023-05-14T07:43:10;101563.69;;;16.19;100.00
10071;BME280;5074;53.720;10.014;2023-05-14T07:45:38;101567.84;;;16.26;100.00
10071;BME280;5074;53.720;10.014;2023-05-14T07:48:06;101565.59;;;16.36;100.00
10071;BME280;5074;53.720;10.014;2023-05-14T07:50:35;101565.91;;;16.48;100.00
10071;BME280;5074;53.720;10.014;2023-05-14T07:53:03;101559.09;;;16.59;100.00
10071;BME280;5074;53.720;10.014;2023-05-14T07:55:31;101563.25;;;16.66;100.00
10071;BME280;5074;53.720;10.014;2023-05-14T07:58:01;101565.31;;;16.80;100.00
10071;BME280;5074;53.720;10.014;2023-05-14T08:00:29;101557.34;;;16.96;100.00
10071;BME280;5074;53.720;10.014;2023-05-14T08:02:57;101555.63;;;17.12;100.00
10071;BME280;5074;53.720;10.014;2023-05-14T08:05:25;101550.31;;;17.28;100.00
10071;BME280;5074;53.720;10.014;2023-05-14T08:07:53;101560.72;;;17.36;100.00
10071;BME280;5074;53.720;10.014;2023-05-14T08:10:21;101551.44;;;17.42;100.00
10071;BME280;5074;53.720;10.014;2023-05-14T08:12:50;101548.03;;;17.38;100.00
10071;BME280;5074;53.720;10.014;2023-05-14T08:15:19;101545.47;;;17.35;100.00
10071;BME280;5074;53.720;10.014;2023-05-14T08:17:47;101545.25;;;17.40;100.00
10071;BME280;5074;53.720;10.014;2023-05-14T08:20:15;101545.06;;;17.43;100.00
10071;BME280;5074;53.720;10.014;2023-05-14T08:22:44;101543.03;;;17.48;100.00
10071;BME280;5074;53.720;10.014;2023-05-14T08:25:12;101545.66;;;17.49;100.00
10071;BME280;5074;53.720;10.014;2023-05-14T08:27:40;101526.47;;;17.54;99.58
10071;BME280;5074;53.720;10.014;2023-05-14T08:30:09;101532.75;;;17.54;100.00
10071;BME280;5074;53.720;10.014;2023-05-14T08:32:38;101531.03;;;17.53;98.40
10071;BME280;5074;53.720;10.014;2023-05-14T08:35:07;101527.59;;;17.50;98.44
10071;BME280;5074;53.720;10.014;2023-05-14T08:37:35;101535.16;;;17.61;97.41
10071;BME280;5074;53.720;10.014;2023-05-14T08:40:04;101530.19;;;17.69;93.29
10071;BME280;5074;53.720;10.014;2023-05-14T08:42:33;101525.72;;;17.85;94.27
10071;BME280;5074;53.720;10.014;2023-05-14T08:45:03;101523.09;;;18.01;96.11
10071;BME280;5074;53.720;10.014;2023-05-14T08:47:32;101516.13;;;18.13;85.87
10071;BME280;5074;53.720;10.014;2023-05-14T08:50:03;101520.41;;;18.17;87.18
10071;BME280;5074;53.720;10.014;2023-05-14T08:52:33;101517.38;;;18.23;98.17
10071;BME280;5074;53.720;10.014;2023-05-14T08:55:03;101516.84;;;18.33;93.25
10071;BME280;5074;53.720;10.014;2023-05-14T08:57:32;101520.72;;;18.45;90.52
10071;BME280;5074;53.720;10.014;2023-05-14T09:00:01;101509.25;;;18.55;89.57
10071;BME280;5074;53.720;10.014;2023-05-14T09:02:33;101511.78;;;18.58;89.32
10071;BME280;5074;53.720;10.014;2023-05-14T09:05:03;101502.00;;;18.56;85.52
10071;BME280;5074;53.720;10.014;2023-05-14T09:07:33;101508.41;;;18.55;97.91
10071;BME280;5074;53.720;10.014;2023-05-14T09:10:01;101504.72;;;18.56;87.46
10071;BME280;5074;53.720;10.014;2023-05-14T09:12:30;101510.66;;;18.63;92.27
10071;BME280;5074;53.720;10.014;2023-05-14T09:14:58;101503.41;;;18.63;89.47
10071;BME280;5074;53.720;10.014;2023-05-14T09:17:26;101496.00;;;18.67;86.65
10071;BME280;5074;53.720;10.014;2023-05-14T09:19:54;101490.66;;;18.65;89.00
10071;BME280;5074;53.720;10.014;2023-05-14T09:22:24;101494.94;;;18.53;95.83
10071;BME280;5074;53.720;10.014;2023-05-14T09:25:05;101495.03;;;18.52;86.01
10071;BME280;5074;53.720;10.014;2023-05-14T09:27:35;101482.78;;;18.77;71.94
10071;BME280;5074;53.720;10.014;2023-05-14T09:30:07;101493.44;;;18.80;80.05
10071;BME280;5074;53.720;10.014;2023-05-14T09:32:37;101481.94;;;19.06;78.33
10071;BME280;5074;53.720;10.014;2023-05-14T09:35:14;101483.53;;;19.11;67.51
10071;BME280;5074;53.720;10.014;2023-05-14T09:37:46;101477.75;;;19.17;70.70
10071;BME280;5074;53.720;10.014;2023-05-14T09:40:15;101476.56;;;19.21;72.17
10071;BME280;5074;53.720;10.014;2023-05-14T09:42:44;101469.47;;;19.34;82.43
10071;BME280;5074;53.720;10.014;2023-05-14T09:45:14;101461.47;;;19.47;79.59
10071;BME280;5074;53.720;10.014;2023-05-14T09:47:42;101475.09;;;19.60;73.20
10071;BME280;5074;53.720;10.014;2023-05-14T09:50:11;101460.47;;;19.77;77.39
10071;BME280;5074;53.720;10.014;2023-05-14T09:52:39;101465.38;;;19.86;67.96
10071;BME280;5074;53.720;10.014;2023-05-14T09:55:09;101458.97;;;19.87;68.01
10071;BME280;5074;53.720;10.014;2023-05-14T09:57:37;101456.72;;;19.65;71.15
10071;BME280;5074;53.720;10.014;2023-05-14T10:00:06;101455.03;;;19.48;65.54
10071;BME280;5074;53.720;10.014;2023-05-14T10:02:36;101455.25;;;19.74;66.09
10071;BME280;5074;53.720;10.014;2023-05-14T10:05:07;101463.44;;;19.88;60.61
10071;BME280;5074;53.720;10.014;2023-05-14T10:07:39;101453.72;;;19.99;55.70
10071;BME280;5074;53.720;10.014;2023-05-14T10:10:14;101453.78;;;20.26;55.65
10071;BME280;5074;53.720;10.014;2023-05-14T10:12:47;101452.88;;;20.40;54.52
10071;BME280;5074;53.720;10.014;2023-05-14T10:15:20;101447.28;;;20.28;58.28
10071;BME280;5074;53.720;10.014;2023-05-14T10:17:54;101455.56;;;20.12;58.57
10071;BME280;5074;53.720;10.014;2023-05-14T10:20:23;101443.69;;;20.42;60.80
10071;BME280;5074;53.720;10.014;2023-05-14T10:22:53;101443.91;;;20.52;60.46
10071;BME280;5074;53.720;10.014;2023-05-14T10:25:22;101440.09;;;20.69;53.27
10071;BME280;5074;53.720;10.014;2023-05-14T10:27:51;101435.66;;;20.68;51.76
10071;BME280;5074;53.720;10.014;2023-05-14T10:30:20;101431.25;;;20.80;58.79
10071;BME280;5074;53.720;10.014;2023-05-14T10:33:05;101420.06;;;20.57;56.05
10071;BME280;5074;53.720;10.014;2023-05-14T10:35:53;101423.09;;;20.80;56.80
10071;BME280;5074;53.720;10.014;2023-05-14T10:38:24;101421.91;;;20.97;55.39
10071;BME280;5074;53.720;10.014;2023-05-14T10:40:59;101421.06;;;20.96;49.19
10071;BME280;5074;53.720;10.014;2023-05-14T10:43:28;101421.50;;;20.90;56.13
10071;BME280;5074;53.720;10.014;2023-05-14T10:45:58;101424.75;;;20.95;54.80
10071;BME280;5074;53.720;10.014;2023-05-14T10:48:27;101423.84;;;20.82;52.46
10071;BME280;5074;53.720;10.014;2023-05-14T10:50:56;101423.06;;;20.67;53.04
10071;BME280;5074;53.720;10.014;2023-05-14T10:53:35;101423.13;;;20.65;55.75
10071;BME280;5074;53.720;10.014;2023-05-14T10:56:06;101405.25;;;20.48;52.45
10071;BME280;5074;53.720;10.014;2023-05-14T10:58:35;101431.63;;;20.46;57.73
10071;BME280;5074;53.720;10.014;2023-05-14T11:01:05;101416.75;;;20.67;47.80
10071;BME280;5074;53.720;10.014;2023-05-14T11:03:38;101412.75;;;20.72;47.04
10071;BME280;5074;53.720;10.014;2023-05-14T11:06:08;101409.44;;;20.94;49.08
10071;BME280;5074;53.720;10.014;2023-05-14T11:08:37;101401.97;;;21.24;47.90
10071;BME280;5074;53.720;10.014;2023-05-14T11:11:07;101397.72;;;21.20;46.24
10071;BME280;5074;53.720;10.014;2023-05-14T11:13:36;101400.75;;;21.02;45.66
10071;BME280;5074;53.720;10.014;2023-05-14T11:16:05;101397.03;;;20.90;48.49
10071;BME280;5074;53.720;10.014;2023-05-14T11:18:36;101387.97;;;20.77;48.48
10071;BME280;5074;53.720;10.014;2023-05-14T11:21:04;101386.38;;;20.87;48.26
10071;BME280;5074;53.720;10.014;2023-05-14T11:23:32;101386.25;;;20.76;46.20
10071;BME280;5074;53.720;10.014;2023-05-14T11:26:00;101380.38;;;20.82;49.56
10071;BME280;5074;53.720;10.014;2023-05-14T11:28:30;101377.47;;;20.58;47.58
10071;BME280;5074;53.720;10.014;2023-05-14T11:30:58;101381.31;;;20.41;49.92
10071;BME280;5074;53.720;10.014;2023-05-14T11:33:28;101384.44;;;20.35;48.65
10071;BME280;5074;53.720;10.014;2023-05-14T11:35:56;101381.56;;;20.23;52.41
10071;BME280;5074;53.720;10.014;2023-05-14T11:38:24;101380.66;;;20.37;52.29
10071;BME280;5074;53.720;10.014;2023-05-14T11:40:52;101378.06;;;20.36;49.30
10071;BME280;5074;53.720;10.014;2023-05-14T11:43:21;101366.56;;;20.45;51.09
10071;BME280;5074;53.720;10.014;2023-05-14T11:45:52;101370.88;;;20.35;51.16
10071;BME280;5074;53.720;10.014;2023-05-14T11:48:20;101352.78;;;20.35;52.27
10071;BME280;5074;53.720;10.014;2023-05-14T11:50:49;101361.34;;;20.42;53.16
10071;BME280;5074;53.720;10.014;2023-05-14T11:53:18;101358.81;;;20.66;53.81
10071;BME280;5074;53.720;10.014;2023-05-14T11:55:47;101357.97;;;20.78;55.01
10071;BME280;5074;53.720;10.014;2023-05-14T11:58:15;101362.50;;;20.65;53.81
10071;BME280;5074;53.720;10.014;2023-05-14T12:00:44;101352.03;;;20.73;50.51
10071;BME280;5074;53.720;10.014;2023-05-14T12:03:14;101353.72;;;20.34;48.50
10071;BME280;5074;53.720;10.014;2023-05-14T12:05:54;101356.50;;;20.47;48.63
10071;BME280;5074;53.720;10.014;2023-05-14T12:08:25;101344.84;;;20.45;53.23
10071;BME280;5074;53.720;10.014;2023-05-14T12:10:54;101343.66;;;20.49;52.14
10071;BME280;5074;53.720;10.014;2023-05-14T12:13:24;101347.78;;;20.42;55.15
10071;BME280;5074;53.720;10.014;2023-05-14T12:15:54;101329.31;;;20.74;54.42
10071;BME280;5074;53.720;10.014;2023-05-14T12:18:26;101343.44;;;20.79;56.38
10071;BME280;5074;53.720;10.014;2023-05-14T12:20:54;101329.53;;;20.84;51.54
10071;BME280;5074;53.720;10.014;2023-05-14T12:23:25;101335.97;;;21.09;51.92
10071;BME280;5074;53.720;10.014;2023-05-14T12:25:54;101333.56;;;21.30;51.71
10071;BME280;5074;53.720;10.014;2023-05-14T12:28:22;101326.09;;;21.08;52.16
10071;BME280;5074;53.720;10.014;2023-05-14T12:30:55;101330.00;;;21.04;52.47
10071;BME280;5074;53.720;10.014;2023-05-14T12:33:25;101332.38;;;21.21;52.89
10071;BME280;5074;53.720;10.014;2023-05-14T12:35:56;101327.59;;;21.88;51.81
10071;BME280;5074;53.720;10.014;2023-05-14T12:38:45;101326.13;;;22.08;49.70
10071;BME280;5074;53.720;10.014;2023-05-14T12:41:13;101323.84;;;21.77;50.93
10071;BME280;5074;53.720;10.014;2023-05-14T12:43:42;101326.25;;;21.56;49.09
10071;BME280;5074;53.720;10.014;2023-05-14T12:46:11;101328.84;;;21.45;48.07
10071;BME280;5074;53.720;10.014;2023-05-14T12:48:40;101321.16;;;21.39;50.57
10071;BME280;5074;53.720;10.014;2023-05-14T12:51:08;101324.94;;;21.62;48.90
10071;BME280;5074;53.720;10.014;2023-05-14T12:53:36;101321.16;;;21.13;49.21
10071;BME280;5074;53.720;10.014;2023-05-14T12:56:05;101318.38;;;20.89;53.11